createdAt,value
2018-09-03T00:00:13.675Z,76.48
2018-09-03T00:02:43.935Z,76.59
2018-09-03T00:05:14.310Z,76.93
2018-09-03T00:07:44.512Z,77.29
2018-09-03T00:10:14.645Z,77.22
2018-09-03T00:12:44.765Z,76.74
2018-09-03T00:15:15.093Z,77.28
2018-09-03T00:17:45.143Z,76.83
2018-09-03T00:20:15.409Z,77.29
2018-09-03T00:22:45.688Z,76.76
2018-09-03T00:25:17.103Z,76.00
2018-09-03T00:27:47.208Z,75.33
2018-09-03T00:30:18.270Z,75.23
2018-09-03T00:32:53.346Z,75.17
2018-09-03T00:35:30.227Z,74.35
2018-09-03T00:38:08.148Z,75.20
2018-09-03T00:40:43.360Z,75.04
2018-09-03T00:43:18.433Z,75.56
2018-09-03T00:45:53.550Z,74.81
2018-09-03T00:48:23.519Z,75.18
2018-09-03T00:50:53.717Z,75.46
2018-09-03T00:53:24.873Z,75.43
2018-09-03T00:55:56.418Z,74.39
2018-09-03T00:58:26.747Z,74.83
2018-09-03T01:00:56.779Z,75.32
2018-09-03T01:03:26.943Z,74.57
2018-09-03T01:05:56.988Z,74.51
2018-09-03T01:08:27.133Z,74.54
2018-09-03T01:10:57.350Z,74.76
2018-09-03T01:13:29.146Z,74.24
2018-09-03T01:15:59.186Z,74.68
2018-09-03T01:18:29.645Z,74.80
2018-09-03T01:21:00.001Z,74.56
2018-09-03T01:23:30.076Z,75.56
2018-09-03T01:26:00.272Z,76.22
2018-09-03T01:28:30.415Z,75.88
2018-09-03T01:31:00.640Z,75.96
2018-09-03T01:33:30.872Z,76.09
2018-09-03T01:36:01.165Z,77.31
2018-09-03T01:38:31.255Z,77.46
2018-09-03T01:41:01.664Z,76.87
2018-09-03T01:43:31.862Z,77.12
2018-09-03T01:46:01.811Z,78.07
2018-09-03T01:48:31.809Z,77.89
2018-09-03T01:51:02.147Z,78.66
2018-09-03T01:53:32.598Z,78.56
2018-09-03T01:56:04.449Z,79.68
2018-09-03T01:58:34.815Z,80.23
2018-09-03T02:01:04.965Z,80.71
2018-09-03T02:03:35.210Z,81.01
2018-09-03T02:06:06.431Z,81.48
2018-09-03T02:08:36.353Z,82.79
2018-09-03T02:11:06.373Z,83.47
2018-09-03T02:13:36.855Z,84.13
2018-09-03T02:16:06.954Z,84.27
2018-09-03T02:18:37.334Z,85.26
2018-09-03T02:21:07.782Z,84.60
2018-09-03T02:23:38.285Z,85.38
2018-09-03T02:26:08.199Z,86.23
2018-09-03T02:28:38.460Z,86.59
2018-09-03T02:31:08.769Z,87.68
2018-09-03T02:33:38.948Z,87.37
2018-09-03T02:36:08.924Z,87.52
2018-09-03T02:38:39.312Z,87.91
2018-09-03T02:41:09.472Z,89.23
2018-09-03T02:43:39.653Z,89.28
2018-09-03T02:46:10.057Z,90.11
2018-09-03T02:48:40.123Z,90.85
2018-09-03T02:51:12.847Z,90.74
2018-09-03T02:53:43.034Z,90.36
2018-09-03T02:56:13.491Z,91.54
2018-09-03T02:58:43.526Z,92.87
2018-09-03T03:01:13.738Z,92.56
2018-09-03T03:03:44.722Z,93.80
2018-09-03T03:06:14.894Z,93.72
2018-09-03T03:08:46.233Z,94.71
2018-09-03T03:11:17.179Z,94.99
2018-09-03T03:13:47.396Z,95.46
2018-09-03T03:16:17.731Z,95.50
2018-09-03T03:18:47.941Z,95.88
2018-09-03T03:21:20.010Z,96.45
2018-09-03T03:23:50.200Z,96.67
2018-09-03T03:26:20.500Z,97.89
2018-09-03T03:28:50.401Z,98.53
2018-09-03T03:31:20.596Z,99.31
2018-09-03T03:33:50.750Z,99.78
2018-09-03T03:36:20.864Z,99.53
2018-09-03T03:38:51.250Z,99.33
2018-09-03T03:41:21.635Z,100.00
2018-09-03T03:43:51.556Z,100.00
2018-09-03T03:46:22.638Z,99.95
2018-09-03T03:48:53.163Z,99.93
2018-09-03T03:51:23.444Z,100.00
2018-09-03T03:53:53.610Z,99.47
2018-09-03T03:56:23.795Z,99.53
2018-09-03T03:58:54.305Z,98.81
2018-09-03T04:01:24.635Z,98.91
2018-09-03T04:03:54.778Z,99.54
2018-09-03T04:06:25.247Z,98.58
2018-09-03T04:08:55.526Z,98.53
2018-09-03T04:11:27.140Z,97.87
2018-09-03T04:13:57.175Z,98.11
2018-09-03T04:16:27.483Z,99.39
2018-09-03T04:18:57.639Z,100.00
2018-09-03T04:21:28.133Z,100.00
2018-09-03T04:23:58.768Z,99.35
2018-09-03T04:26:28.943Z,98.93
2018-09-03T04:28:59.483Z,98.05
2018-09-03T04:31:30.472Z,97.67
2018-09-03T04:34:00.579Z,97.26
2018-09-03T04:36:35.022Z,97.16
2018-09-03T04:39:05.744Z,98.06
2018-09-03T04:41:36.016Z,96.44
2018-09-03T04:44:06.364Z,94.68
2018-09-03T04:46:37.272Z,91.66
2018-09-03T04:49:07.462Z,89.42
2018-09-03T04:51:38.496Z,89.61
2018-09-03T04:56:46.096Z,91.49
2018-09-03T04:59:16.349Z,93.20
2018-09-03T05:01:46.627Z,94.86
2018-09-03T05:04:16.802Z,96.39
2018-09-03T05:06:48.477Z,96.31
2018-09-03T05:09:18.492Z,94.28
2018-09-03T05:11:51.159Z,96.41
2018-09-03T05:14:21.813Z,95.08
2018-09-03T05:16:54.396Z,95.35
2018-09-03T05:19:24.580Z,94.55
2018-09-03T05:21:56.300Z,93.58
2018-09-03T05:24:27.686Z,93.36
2018-09-03T05:26:57.896Z,91.97
2018-09-03T05:29:28.051Z,90.79
2018-09-03T05:31:58.136Z,90.16
2018-09-03T05:34:29.115Z,87.73
2018-09-03T05:37:02.275Z,81.94
2018-09-03T05:39:34.099Z,75.68
2018-09-03T05:42:04.361Z,72.36
2018-09-03T05:44:34.592Z,71.13
2018-09-03T05:47:04.638Z,67.35
2018-09-03T05:49:35.059Z,66.48
2018-09-03T05:52:05.324Z,66.72
2018-09-03T05:54:35.678Z,66.62
2018-09-03T05:57:06.149Z,64.29
2018-09-03T05:59:36.453Z,62.71
2018-09-03T06:02:06.750Z,59.57
2018-09-03T06:04:37.064Z,58.85
2018-09-03T06:07:07.460Z,58.19
2018-09-03T06:09:37.733Z,63.85
2018-09-03T06:12:07.829Z,62.85
2018-09-03T06:14:38.119Z,64.93
2018-09-03T06:17:08.260Z,64.59
2018-09-03T06:19:38.394Z,66.21
2018-09-03T06:22:08.908Z,68.94
2018-09-03T06:24:39.204Z,68.58
2018-09-03T06:27:10.569Z,66.56
2018-09-03T06:29:40.767Z,66.45
2018-09-03T06:32:11.052Z,66.08
2018-09-03T06:34:41.091Z,70.52
2018-09-03T06:37:11.026Z,67.36
2018-09-03T06:39:42.196Z,70.54
2018-09-03T06:42:12.355Z,69.22
2018-09-03T06:44:42.618Z,67.98
2018-09-03T06:47:12.717Z,64.74
2018-09-03T06:49:43.011Z,66.03
2018-09-03T06:52:13.246Z,70.54
2018-09-03T06:54:44.228Z,73.45
2018-09-03T06:57:15.216Z,68.68
2018-09-03T06:59:46.435Z,67.46
2018-09-03T07:02:16.780Z,69.75
2018-09-03T07:04:46.791Z,72.39
2018-09-03T07:07:16.881Z,69.78
2018-09-03T07:09:47.213Z,68.77
2018-09-03T07:12:19.087Z,68.78
2018-09-03T07:14:49.363Z,69.13
2018-09-03T07:17:20.844Z,72.42
2018-09-03T07:19:51.109Z,73.78
2018-09-03T07:22:22.669Z,74.80
2018-09-03T07:24:53.764Z,76.08
2018-09-03T07:27:25.424Z,77.18
2018-09-03T07:29:55.804Z,77.91
2018-09-03T07:32:26.104Z,80.55
2018-09-03T07:34:56.655Z,77.91
2018-09-03T07:37:27.240Z,78.41
2018-09-03T07:39:57.880Z,79.02
2018-09-03T07:42:28.683Z,81.00
2018-09-03T07:44:58.977Z,81.00
2018-09-03T07:47:29.032Z,80.12
2018-09-03T07:49:59.199Z,80.12
2018-09-03T07:52:29.883Z,79.84
2018-09-03T07:55:00.073Z,80.15
2018-09-03T07:57:30.366Z,79.13
2018-09-03T08:00:00.576Z,80.26
2018-09-03T08:02:30.687Z,81.13
2018-09-03T08:05:01.412Z,80.62
2018-09-03T08:07:31.703Z,80.72
2018-09-03T08:10:02.874Z,78.77
2018-09-03T08:12:33.072Z,78.94
2018-09-03T08:15:03.432Z,78.47
2018-09-03T08:17:33.444Z,77.83
2018-09-03T08:20:03.934Z,80.69
2018-09-03T08:22:34.112Z,81.45
2018-09-03T08:25:04.356Z,79.40
2018-09-03T08:27:34.516Z,80.24
2018-09-03T08:30:06.490Z,80.23
2018-09-03T08:32:37.143Z,78.15
2018-09-03T08:35:07.556Z,80.90
2018-09-03T08:37:38.627Z,83.36
2018-09-03T08:40:08.792Z,83.67
2018-09-03T08:42:39.022Z,83.81
2018-09-03T08:45:09.853Z,83.53
2018-09-03T08:47:40.637Z,81.49
2018-09-03T08:50:12.110Z,81.73
2018-09-03T08:52:43.341Z,79.67
2018-09-03T08:55:14.186Z,81.02
2018-09-03T08:57:44.525Z,82.92
2018-09-03T09:00:14.707Z,81.54
2018-09-03T09:02:44.835Z,81.83
2018-09-03T09:05:15.749Z,80.51
2018-09-03T09:07:46.036Z,81.67
2018-09-03T09:10:16.270Z,81.29
2018-09-03T09:12:46.312Z,83.34
2018-09-03T09:15:16.553Z,83.68
2018-09-03T09:17:46.847Z,82.92
2018-09-03T09:20:17.175Z,83.83
2018-09-03T09:22:47.675Z,83.55
2018-09-03T09:25:17.864Z,82.44
2018-09-03T09:27:48.339Z,81.63
2018-09-03T09:30:18.407Z,80.38
2018-09-03T09:32:48.454Z,81.08
2018-09-03T09:35:18.580Z,80.70
2018-09-03T09:37:48.948Z,81.61
2018-09-03T09:40:19.085Z,80.34
2018-09-03T09:42:49.697Z,79.45
2018-09-03T09:45:19.715Z,77.41
2018-09-03T09:47:50.058Z,79.55
2018-09-03T09:50:20.680Z,78.98
2018-09-03T09:52:51.088Z,80.20
2018-09-03T09:55:21.808Z,78.60
2018-09-03T09:57:52.073Z,82.71
2018-09-03T10:00:27.269Z,81.25
2018-09-03T10:02:57.565Z,81.06
2018-09-03T10:05:27.927Z,82.99
2018-09-03T10:07:58.291Z,83.38
2018-09-03T10:10:28.537Z,81.49
2018-09-03T10:13:02.787Z,82.12
2018-09-03T10:15:33.321Z,81.84
2018-09-03T10:18:04.354Z,80.42
2018-09-03T10:20:34.595Z,80.39
2018-09-03T10:23:05.521Z,81.05
2018-09-03T10:25:35.345Z,79.84
2018-09-03T10:28:05.602Z,79.92
2018-09-03T10:30:35.626Z,80.76
2018-09-03T10:33:05.431Z,80.44
2018-09-03T10:35:35.554Z,80.59
2018-09-03T10:38:05.679Z,80.15
2018-09-03T10:40:35.509Z,81.31
2018-09-03T10:43:05.223Z,77.04
2018-09-03T10:45:35.121Z,80.62
2018-09-03T10:48:06.110Z,80.46
2018-09-03T10:50:36.033Z,79.06
2018-09-03T10:53:06.366Z,79.43
2018-09-03T10:55:36.127Z,78.54
2018-09-03T10:58:06.754Z,79.91
2018-09-03T11:00:37.070Z,80.64
2018-09-03T11:03:08.059Z,79.74
2018-09-03T11:05:37.919Z,83.34
2018-09-03T11:08:07.999Z,82.83
2018-09-03T11:10:37.923Z,80.68
2018-09-03T11:13:08.414Z,81.19
2018-09-03T11:15:38.568Z,80.91
2018-09-03T11:18:08.721Z,80.49
2018-09-03T11:20:38.521Z,80.33
2018-09-03T11:23:08.485Z,81.86
2018-09-03T11:25:38.314Z,81.35
2018-09-03T11:28:08.383Z,82.94
2018-09-03T11:30:38.625Z,81.92
2018-09-03T11:33:08.569Z,81.47
2018-09-03T11:35:38.655Z,80.60
2018-09-03T11:38:08.560Z,80.43
2018-09-03T11:40:38.489Z,79.88
2018-09-03T11:43:08.359Z,81.41
2018-09-03T11:45:38.114Z,81.23
2018-09-03T11:48:07.962Z,81.89
2018-09-03T11:50:38.352Z,79.84
2018-09-03T11:53:08.501Z,80.38
2018-09-03T11:55:38.808Z,83.22
2018-09-03T11:58:08.964Z,80.68
2018-09-03T12:00:39.101Z,81.25
2018-09-03T12:03:08.944Z,81.18
2018-09-03T12:05:39.909Z,80.38
2018-09-03T12:08:09.747Z,78.59
2018-09-03T12:10:39.749Z,81.08
2018-09-03T12:13:09.851Z,79.42
2018-09-03T12:15:48.938Z,80.80
2018-09-03T12:18:18.871Z,81.10
2018-09-03T12:20:48.904Z,79.34
2018-09-03T12:23:19.007Z,80.57
2018-09-03T12:25:51.405Z,81.30
2018-09-03T12:28:21.031Z,79.95
2018-09-03T12:30:50.645Z,81.99
2018-09-03T12:33:20.252Z,79.49
2018-09-03T12:35:50.866Z,78.77
2018-09-03T12:38:21.352Z,75.26
2018-09-03T12:40:51.102Z,76.29
2018-09-03T12:43:20.966Z,74.78
2018-09-03T12:45:55.690Z,77.70
2018-09-03T12:48:25.321Z,76.42
2018-09-03T12:50:55.004Z,77.42
2018-09-03T12:53:24.897Z,79.69
2018-09-03T12:55:55.663Z,79.94
2018-09-03T12:58:25.369Z,79.53
2018-09-03T13:00:55.225Z,80.29
2018-09-03T13:03:24.896Z,76.99
2018-09-03T13:05:55.074Z,77.47
2018-09-03T13:08:25.252Z,78.14
2018-09-03T13:10:55.099Z,79.92
2018-09-03T13:13:24.886Z,75.97
2018-09-03T13:15:57.166Z,76.12
2018-09-03T13:18:27.043Z,76.59
2018-09-03T13:20:57.100Z,76.28
2018-09-03T13:23:27.147Z,75.39
2018-09-03T13:25:56.967Z,75.59
2018-09-03T13:28:26.863Z,75.75
2018-09-03T13:30:56.836Z,73.12
2018-09-03T13:33:26.967Z,77.28
2018-09-03T13:35:58.129Z,75.53
2018-09-03T13:38:28.338Z,78.36
2018-09-03T13:40:59.178Z,80.69
2018-09-03T13:43:29.119Z,80.40
2018-09-03T13:46:00.019Z,80.46
2018-09-03T13:48:29.884Z,77.23
2018-09-03T13:50:59.781Z,76.67
2018-09-03T13:53:33.841Z,78.29
2018-09-03T13:56:03.769Z,78.37
2018-09-03T13:58:33.868Z,79.04
2018-09-03T14:01:04.797Z,74.37
2018-09-03T14:03:35.147Z,77.93
2018-09-03T14:06:05.042Z,78.92
2018-09-03T14:08:35.101Z,80.49
2018-09-03T14:11:05.349Z,76.06
2018-09-03T14:13:35.272Z,77.66
2018-09-03T14:16:05.246Z,78.37
2018-09-03T14:18:35.399Z,78.59
2018-09-03T14:21:05.516Z,77.14
2018-09-03T14:23:37.712Z,79.01
2018-09-03T14:26:08.718Z,79.80
2018-09-03T14:28:38.673Z,76.15
2018-09-03T14:31:08.559Z,79.88
2018-09-03T14:33:38.393Z,78.98
2018-09-03T14:36:08.471Z,78.27
2018-09-03T14:38:38.229Z,78.59
2018-09-03T14:41:08.310Z,75.73
2018-09-03T14:43:38.186Z,77.60
2018-09-03T14:46:08.896Z,81.54
2018-09-03T14:48:38.862Z,80.45
2018-09-03T14:51:09.234Z,79.60
2018-09-03T14:53:40.993Z,80.62
2018-09-03T14:56:11.409Z,79.37
2018-09-03T14:58:41.499Z,79.26
2018-09-03T15:01:11.944Z,78.93
2018-09-03T15:03:42.346Z,78.78
2018-09-03T15:06:12.260Z,80.54
2018-09-03T15:08:42.027Z,81.18
2018-09-03T15:11:12.016Z,80.12
2018-09-03T15:13:41.879Z,80.46
2018-09-03T15:16:11.595Z,80.36
2018-09-03T15:18:41.614Z,80.52
2018-09-03T15:21:15.559Z,81.49
2018-09-03T15:23:47.860Z,81.42
2018-09-03T15:26:20.363Z,81.11
2018-09-03T15:28:54.643Z,80.83
2018-09-03T15:31:30.942Z,81.04
2018-09-03T15:34:04.787Z,82.77
2018-09-03T15:36:36.955Z,83.54
2018-09-03T15:39:13.178Z,82.93
2018-09-03T15:41:46.107Z,84.19
2018-09-03T15:44:19.414Z,83.28
2018-09-03T15:46:50.750Z,84.73
2018-09-03T15:49:20.849Z,85.29
2018-09-03T15:51:51.456Z,86.12
2018-09-03T15:54:23.516Z,86.25
2018-09-03T15:56:53.556Z,87.84
2018-09-03T15:59:24.509Z,86.92
2018-09-03T16:01:55.163Z,88.12
2018-09-03T16:04:25.439Z,87.77
2018-09-03T16:06:55.346Z,87.97
2018-09-03T16:09:26.883Z,87.56
2018-09-03T16:11:57.589Z,87.54
2018-09-03T16:14:28.082Z,88.01
2018-09-03T16:16:58.082Z,89.13
2018-09-03T16:19:28.055Z,88.93
2018-09-03T16:21:58.403Z,89.53
2018-09-03T16:24:30.017Z,89.41
2018-09-03T16:27:00.047Z,89.96
2018-09-03T16:29:29.951Z,90.07
2018-09-03T16:32:01.487Z,89.71
2018-09-03T16:34:31.615Z,87.69
2018-09-03T16:37:01.694Z,83.93
2018-09-03T16:39:32.250Z,82.83
2018-09-03T16:42:06.091Z,80.26
2018-09-03T16:44:36.489Z,79.96
2018-09-03T16:47:06.794Z,80.27
2018-09-03T16:49:37.126Z,79.51
2018-09-03T16:52:07.626Z,79.49
2018-09-03T16:54:37.436Z,78.81
2018-09-03T16:57:07.425Z,78.42
2018-09-03T16:59:38.001Z,77.73
2018-09-03T17:02:08.309Z,77.90
2018-09-03T17:04:38.255Z,77.57
2018-09-03T17:07:09.824Z,78.07
2018-09-03T17:09:40.329Z,78.26
2018-09-03T17:12:11.114Z,78.44
2018-09-03T17:14:41.457Z,79.21
2018-09-03T17:17:12.048Z,79.61
2018-09-03T17:19:44.005Z,80.14
2018-09-03T17:22:16.064Z,80.24
2018-09-03T17:24:48.553Z,81.31
2018-09-03T17:27:20.797Z,81.29
2018-09-03T17:29:51.976Z,81.75
2018-09-03T17:32:21.608Z,81.37
2018-09-03T17:34:52.298Z,80.22
2018-09-03T17:37:22.552Z,80.92
2018-09-03T17:39:53.453Z,80.26
2018-09-03T17:42:23.939Z,80.76
2018-09-03T17:44:54.323Z,81.61
2018-09-03T17:47:26.015Z,81.26
2018-09-03T17:49:58.057Z,81.43
2018-09-03T17:52:28.656Z,81.63
2018-09-03T17:55:00.321Z,81.72
2018-09-03T17:57:31.638Z,81.78
2018-09-03T18:00:02.228Z,81.52
2018-09-03T18:02:33.291Z,81.65
2018-09-03T18:05:06.115Z,82.83
2018-09-03T18:07:36.935Z,82.65
2018-09-03T18:10:07.817Z,83.08
2018-09-03T18:12:39.063Z,83.71
2018-09-03T18:15:11.127Z,83.32
2018-09-03T18:17:41.224Z,83.42
2018-09-03T18:20:11.261Z,85.09
2018-09-03T18:22:41.825Z,84.29
2018-09-03T18:25:12.614Z,84.52
2018-09-03T18:27:43.145Z,84.84
2018-09-03T18:30:17.229Z,85.50
2018-09-03T18:32:49.789Z,86.03
2018-09-03T18:35:20.077Z,85.56
2018-09-03T18:37:50.203Z,85.85
2018-09-03T18:40:20.463Z,86.28
2018-09-03T18:42:51.639Z,86.52
2018-09-03T18:45:22.539Z,87.50
2018-09-03T18:47:52.915Z,86.68
2018-09-03T18:50:23.064Z,87.07
2018-09-03T18:52:53.567Z,88.70
2018-09-03T18:55:23.771Z,89.25
2018-09-03T18:57:54.060Z,89.82
2018-09-03T19:00:25.189Z,89.51
2018-09-03T19:02:55.535Z,89.46
2018-09-03T19:05:25.656Z,90.04
2018-09-03T19:07:57.108Z,90.08
2018-09-03T19:10:27.135Z,90.79
2018-09-03T19:12:57.645Z,90.62
2018-09-03T19:15:29.908Z,91.32
2018-09-03T19:18:00.269Z,91.35
2018-09-03T19:20:30.863Z,90.93
2018-09-03T19:23:01.190Z,91.02
2018-09-03T19:25:32.956Z,90.87
2018-09-03T19:28:03.421Z,91.15
2018-09-03T19:33:09.156Z,91.44
2018-09-03T19:35:39.361Z,91.76
2018-09-03T19:38:09.659Z,91.74
2018-09-03T19:40:39.901Z,92.01
2018-09-03T19:43:10.101Z,91.51
2018-09-03T19:45:40.362Z,92.46
2018-09-03T19:48:10.836Z,91.91
2018-09-03T19:50:41.115Z,91.18
2018-09-03T19:53:11.475Z,90.99
2018-09-03T19:55:42.909Z,90.80
2018-09-03T19:58:13.114Z,90.57
2018-09-03T20:00:43.351Z,90.66
2018-09-03T20:03:14.376Z,91.25
2018-09-03T20:05:44.644Z,91.65
2018-09-03T20:08:15.668Z,91.73
2018-09-03T20:10:45.884Z,91.79
2018-09-03T20:13:16.304Z,91.66
2018-09-03T20:15:46.715Z,91.39
2018-09-03T20:18:16.900Z,91.43
2018-09-03T20:20:47.105Z,92.11
2018-09-03T20:23:19.130Z,92.32
2018-09-03T20:25:49.346Z,92.26
2018-09-03T20:28:20.356Z,92.01
2018-09-03T20:30:50.305Z,92.19
2018-09-03T20:33:20.653Z,91.04
2018-09-03T20:35:50.864Z,91.38
2018-09-03T20:38:21.414Z,91.45
2018-09-03T20:40:51.543Z,91.42
2018-09-03T20:43:21.864Z,91.56
2018-09-03T20:45:51.940Z,91.41
2018-09-03T20:48:22.933Z,91.50
2018-09-03T20:50:53.518Z,91.43
2018-09-03T20:53:23.779Z,91.64
2018-09-03T20:55:54.257Z,92.40
2018-09-03T20:58:24.478Z,92.03
2018-09-03T21:00:55.729Z,92.02
2018-09-03T21:03:26.163Z,91.82
2018-09-03T21:05:56.321Z,91.46
2018-09-03T21:08:27.172Z,91.75
2018-09-03T21:10:57.530Z,91.62
2018-09-03T21:13:28.018Z,91.87
2018-09-03T21:15:58.575Z,92.19
2018-09-03T21:18:28.790Z,91.93
2018-09-03T21:20:58.842Z,91.89
2018-09-03T21:23:29.009Z,92.87
2018-09-03T21:25:59.183Z,92.30
2018-09-03T21:28:29.175Z,93.03
2018-09-03T21:30:59.100Z,93.42
2018-09-03T21:33:30.037Z,94.03
2018-09-03T21:36:00.022Z,94.38
2018-09-03T21:38:30.356Z,94.65
2018-09-03T21:41:00.520Z,94.28
2018-09-03T21:43:30.715Z,94.08
2018-09-03T21:46:00.567Z,94.93
2018-09-03T21:48:30.606Z,94.77
2018-09-03T21:51:00.901Z,95.78
2018-09-03T21:53:31.257Z,95.63
2018-09-03T21:56:01.644Z,95.84
2018-09-03T21:58:33.270Z,95.53
2018-09-03T22:01:03.562Z,94.92
2018-09-03T22:03:49.870Z,94.73
2018-09-03T22:06:20.345Z,94.57
2018-09-03T22:08:51.013Z,94.82
2018-09-03T22:11:22.193Z,95.01
2018-09-03T22:13:52.299Z,94.00
2018-09-03T22:16:22.593Z,94.06
2018-09-03T22:18:52.888Z,93.51
2018-09-03T22:21:23.006Z,95.02
2018-09-03T22:23:54.097Z,95.47
2018-09-03T22:26:24.521Z,95.59
2018-09-03T22:28:55.423Z,96.01
2018-09-03T22:31:27.343Z,95.72
2018-09-03T22:33:58.225Z,96.05
2018-09-03T22:36:29.407Z,96.59
2018-09-03T22:38:59.696Z,96.76
2018-09-03T22:41:29.703Z,96.36
2018-09-03T22:43:59.984Z,96.07
2018-09-03T22:46:31.220Z,96.40
2018-09-03T22:49:01.160Z,96.94
2018-09-03T22:51:31.468Z,96.07
2018-09-03T22:54:01.564Z,96.08
2018-09-03T22:56:31.707Z,95.68
2018-09-03T22:59:02.033Z,96.58
2018-09-03T23:01:34.039Z,97.08
2018-09-03T23:04:03.978Z,98.24
2018-09-03T23:06:34.252Z,97.64
2018-09-03T23:09:05.545Z,98.53
2018-09-03T23:11:36.030Z,98.56
2018-09-03T23:14:07.161Z,99.72
2018-09-03T23:16:37.241Z,99.64
2018-09-03T23:19:07.529Z,98.80
2018-09-03T23:21:37.944Z,98.15
2018-09-03T23:24:08.623Z,97.67
2018-09-03T23:26:39.535Z,97.45
2018-09-03T23:29:10.092Z,97.26
2018-09-03T23:31:41.808Z,97.79
2018-09-03T23:34:11.893Z,97.21
2018-09-03T23:36:42.580Z,97.46
2018-09-03T23:39:13.866Z,97.77
2018-09-03T23:41:43.901Z,99.09
2018-09-03T23:44:14.215Z,100.00
2018-09-03T23:46:44.521Z,100.00
2018-09-03T23:49:14.714Z,100.00
2018-09-03T23:51:44.749Z,100.00
2018-09-03T23:54:15.160Z,100.00
2018-09-03T23:56:46.066Z,100.00
2018-09-03T23:59:16.529Z,100.00
